Time;durP1;ratioP1;P1;durP2;ratioP2;P2;SDS_P1;SDS_P2;PMS_P1;PMS_P2;Temp;Humidity;BMP_temperature;BMP_pressure;BME280_temperature;BME280_humidity;BME280_pressure;Samples;Min_cycle;Max_cycle;Signal;HPM_P1;HPM_P2
2023/09/27 00:00:53;;;;;;;7.80;5.93;;;;;;;;;;748791;185;924467;-66
2023/09/27 00:03:19;;;;;;;6.93;5.50;;;;;;;;;;749655;185;974609;-65
2023/09/27 00:05:46;;;;;;;17.70;6.30;;;;;;;;;;754655;185;919589;-58
2023/09/27 00:08:11;;;;;;;6.93;5.50;;;;;;;;;;749493;187;820455;-57
2023/09/27 00:10:37;;;;;;;7.35;5.78;;;;;;;;;;744945;187;919624;-57
2023/09/27 00:13:03;;;;;;;10.40;6.87;;;;;;;;;;744078;188;919772;-65
2023/09/27 00:15:29;;;;;;;12.10;6.33;;;;;;;;;;751335;187;912657;-57
2023/09/27 00:17:54;;;;;;;12.30;6.20;;;;;;;;;;744864;187;912695;-66
2023/09/27 00:20:21;;;;;;;8.03;5.27;;;;;;;;;;745469;185;920682;-58
2023/09/27 00:22:46;;;;;;;41.10;6.73;;;;;;;;;;755807;183;916348;-65
2023/09/27 00:25:13;;;;;;;10.73;6.30;;;;;;;;;;749498;186;921334;-65
2023/09/27 00:27:38;;;;;;;7.53;5.87;;;;;;;;;;749705;185;918568;-65
2023/09/27 00:30:04;;;;;;;8.73;6.47;;;;;;;;;;752162;184;919150;-65
2023/09/27 00:32:30;;;;;;;9.13;6.37;;;;;;;;;;747871;186;914275;-65
2023/09/27 00:34:56;;;;;;;6.87;5.20;;;;;;;;;;750742;183;918600;-57
2023/09/27 00:37:22;;;;;;;6.57;5.50;;;;;;;;;;749974;186;717191;-58
2023/09/27 00:39:47;;;;;;;7.37;5.77;;;;;;;;;;754197;185;811478;-66
2023/09/27 00:42:13;;;;;;;8.77;6.12;;;;;;;;;;751317;184;919359;-57
2023/09/27 00:44:39;;;;;;;6.70;5.73;;;;;;;;;;750811;187;911325;-65
2023/09/27 00:47:05;;;;;;;8.50;6.62;;;;;;;;;;752022;187;907346;-57
2023/09/27 00:49:31;;;;;;;7.13;6.40;;;;;;;;;;744693;183;922241;-57
2023/09/27 00:51:57;;;;;;;7.35;5.22;;;;;;;;;;747046;186;922356;-65
2023/09/27 00:54:23;;;;;;;7.07;5.80;;;;;;;;;;752021;187;911651;-58
2023/09/27 00:56:49;;;;;;;8.87;5.83;;;;;;;;;;749620;184;921931;-57
2023/09/27 00:59:14;;;;;;;7.37;6.23;;;;;;;;;;746409;187;923079;-57
2023/09/27 01:01:40;;;;;;;8.43;5.67;;;;;;;;;;750046;187;919650;-58
2023/09/27 01:04:06;;;;;;;10.20;8.17;;;;;;;;;;749297;187;919829;-65
2023/09/27 01:06:32;;;;;;;11.30;8.20;;;;;;;;;;748127;188;919033;-66
2023/09/27 01:08:58;;;;;;;10.73;8.40;;;;;;;;;;744069;187;918846;-65
2023/09/27 01:11:24;;;;;;;10.70;7.67;;;;;;;;;;751531;188;934886;-57
2023/09/27 01:13:49;;;;;;;11.30;7.37;;;;;;;;;;746112;187;917516;-57
2023/09/27 01:16:15;;;;;;;16.93;8.60;;;;;;;;;;745551;187;919453;-65
2023/09/27 01:18:41;;;;;;;12.40;8.83;;;;;;;;;;754707;187;916543;-65
2023/09/27 01:21:07;;;;;;;14.93;8.67;;;;;;;;;;746507;187;919157;-64
2023/09/27 01:23:33;;;;;;;14.27;7.67;;;;;;;;;;746006;188;853738;-65
2023/09/27 01:25:58;;;;;;;11.50;9.20;;;;;;;;;;751893;187;918107;-65
2023/09/27 01:28:24;;;;;;;9.87;5.20;;;;;;;;;;746884;187;920332;-58
2023/09/27 01:30:50;;;;;;;8.50;6.20;;;;;;;;;;747774;185;919773;-57
2023/09/27 01:33:17;;;;;;;10.48;9.25;;;;;;;;;;750096;185;916656;-58
2023/09/27 01:35:43;;;;;;;13.63;9.57;;;;;;;;;;741585;187;918562;-58
2023/09/27 01:38:08;;;;;;;16.73;9.73;;;;;;;;;;749519;187;922920;-57
2023/09/27 01:40:35;;;;;;;12.30;8.20;;;;;;;;;;749414;186;919151;-57
2023/09/27 01:43:00;;;;;;;10.00;6.70;;;;;;;;;;754037;187;919221;-56
2023/09/27 01:45:26;;;;;;;11.63;9.47;;;;;;;;;;747201;187;919172;-57
2023/09/27 01:47:52;;;;;;;15.43;10.03;;;;;;;;;;749615;186;918374;-65
2023/09/27 01:50:19;;;;;;;13.02;9.65;;;;;;;;;;751422;187;919534;-65
2023/09/27 01:52:45;;;;;;;15.13;10.63;;;;;;;;;;745709;187;920994;-66
2023/09/27 01:55:11;;;;;;;15.13;10.80;;;;;;;;;;746920;186;915714;-65
2023/09/27 01:57:37;;;;;;;10.15;8.00;;;;;;;;;;752890;186;915773;-64
2023/09/27 02:00:09;;;;;;;8.87;7.80;;;;;;;;;;757852;183;813619;-67
2023/09/27 02:02:30;;;;;;;12.20;8.07;;;;;;;;;;745952;184;919355;-57
2023/09/27 02:04:55;;;;;;;10.77;7.70;;;;;;;;;;748118;186;919058;-57
2023/09/27 02:07:21;;;;;;;13.47;9.47;;;;;;;;;;750738;187;918333;-58
2023/09/27 02:09:47;;;;;;;17.70;10.48;;;;;;;;;;748633;186;817374;-65
2023/09/27 02:12:13;;;;;;;13.10;10.33;;;;;;;;;;746552;187;919490;-65
2023/09/27 02:14:39;;;;;;;12.77;10.60;;;;;;;;;;752363;186;918711;-58
2023/09/27 02:17:05;;;;;;;18.70;10.67;;;;;;;;;;749074;186;919021;-58
2023/09/27 02:19:30;;;;;;;19.57;10.27;;;;;;;;;;745562;187;820656;-56
2023/09/27 02:21:56;;;;;;;14.33;10.30;;;;;;;;;;751792;187;817212;-58
2023/09/27 02:24:22;;;;;;;16.17;11.43;;;;;;;;;;746638;186;916400;-65
2023/09/27 02:26:48;;;;;;;11.50;9.13;;;;;;;;;;746282;187;918815;-57
2023/09/27 02:29:15;;;;;;;14.67;11.70;;;;;;;;;;746184;185;934577;-65
2023/09/27 02:31:41;;;;;;;14.30;10.87;;;;;;;;;;738983;190;941921;-66
2023/09/27 02:34:06;;;;;;;15.70;10.70;;;;;;;;;;750171;185;919261;-57
2023/09/27 02:36:31;;;;;;;11.93;10.00;;;;;;;;;;751446;185;919275;-59
2023/09/27 02:38:58;;;;;;;18.83;10.47;;;;;;;;;;752585;185;920673;-57
2023/09/27 02:41:23;;;;;;;14.33;9.20;;;;;;;;;;746918;187;918568;-66
2023/09/27 02:43:49;;;;;;;13.43;10.65;;;;;;;;;;749382;185;920525;-58
2023/09/27 02:46:15;;;;;;;13.90;10.57;;;;;;;;;;756881;184;918510;-57
2023/09/27 02:48:41;;;;;;;16.87;10.00;;;;;;;;;;751051;186;851314;-58
2023/09/27 02:51:06;;;;;;;13.50;9.50;;;;;;;;;;748252;186;920917;-58
2023/09/27 02:53:32;;;;;;;26.57;11.30;;;;;;;;;;753485;187;918622;-57
2023/09/27 02:55:58;;;;;;;12.70;10.40;;;;;;;;;;748633;185;922554;-65
2023/09/27 02:58:25;;;;;;;12.33;10.13;;;;;;;;;;746708;187;920009;-58
2023/09/27 03:00:50;;;;;;;19.87;13.43;;;;;;;;;;745063;186;918825;-58
2023/09/27 03:03:19;;;;;;;13.90;10.40;;;;;;;;;;750186;187;920704;-67
2023/09/27 03:05:42;;;;;;;17.90;9.80;;;;;;;;;;744941;187;921175;-67
2023/09/27 03:08:07;;;;;;;12.77;9.93;;;;;;;;;;746464;187;837468;-58
2023/09/27 03:10:33;;;;;;;12.60;9.80;;;;;;;;;;748929;186;919605;-65
2023/09/27 03:12:59;;;;;;;12.53;9.47;;;;;;;;;;748603;184;836016;-66
2023/09/27 03:15:25;;;;;;;14.00;11.63;;;;;;;;;;747626;185;919666;-66
2023/09/27 03:17:51;;;;;;;78.83;68.27;;;;;;;;;;753262;187;805808;-59
2023/09/27 03:20:18;;;;;;;47.87;42.57;;;;;;;;;;747656;187;917896;-57
2023/09/27 03:22:42;;;;;;;27.57;24.63;;;;;;;;;;752521;185;741074;-66
2023/09/27 03:25:09;;;;;;;13.60;10.57;;;;;;;;;;748646;184;920159;-65
2023/09/27 03:27:34;;;;;;;18.10;13.37;;;;;;;;;;753719;185;618832;-66
2023/09/27 03:30:00;;;;;;;12.13;9.57;;;;;;;;;;746193;185;919471;-59
2023/09/27 03:32:26;;;;;;;12.90;10.73;;;;;;;;;;744257;186;921188;-58
2023/09/27 03:34:52;;;;;;;12.57;9.00;;;;;;;;;;754778;186;816474;-58
2023/09/27 03:37:18;;;;;;;16.27;10.53;;;;;;;;;;751851;186;624907;-58
2023/09/27 03:39:44;;;;;;;15.57;9.83;;;;;;;;;;750223;186;638134;-58
2023/09/27 03:42:09;;;;;;;14.23;11.00;;;;;;;;;;751977;186;624693;-66
2023/09/27 03:44:35;;;;;;;13.27;10.20;;;;;;;;;;750158;187;629437;-58
2023/09/27 03:47:01;;;;;;;19.17;10.23;;;;;;;;;;753236;187;630984;-66
2023/09/27 03:49:27;;;;;;;20.40;10.10;;;;;;;;;;751152;187;628947;-66
2023/09/27 03:51:53;;;;;;;14.50;10.27;;;;;;;;;;745934;186;918635;-65
2023/09/27 03:54:19;;;;;;;13.23;9.53;;;;;;;;;;747789;186;933419;-66
2023/09/27 03:56:47;;;;;;;15.20;10.40;;;;;;;;;;745921;185;887041;-58
2023/09/27 03:59:10;;;;;;;17.23;11.00;;;;;;;;;;753953;185;919631;-67
2023/09/27 04:01:36;;;;;;;12.67;10.23;;;;;;;;;;747342;185;918052;-68
2023/09/27 04:04:04;;;;;;;13.63;10.80;;;;;;;;;;749938;186;919054;-67
2023/09/27 04:06:28;;;;;;;13.57;10.40;;;;;;;;;;751110;185;919761;-65
2023/09/27 04:08:54;;;;;;;12.90;9.30;;;;;;;;;;748151;185;920899;-58
2023/09/27 04:11:20;;;;;;;13.63;9.03;;;;;;;;;;745704;186;920056;-58
2023/09/27 04:13:45;;;;;;;15.73;9.73;;;;;;;;;;753235;186;916864;-57
2023/09/27 04:16:12;;;;;;;11.20;9.70;;;;;;;;;;746649;187;918843;-66
2023/09/27 04:18:37;;;;;;;14.97;10.03;;;;;;;;;;747443;186;919475;-58
2023/09/27 04:21:04;;;;;;;20.40;9.50;;;;;;;;;;744598;187;919195;-59
2023/09/27 04:23:30;;;;;;;15.10;10.27;;;;;;;;;;744340;187;816188;-67
2023/09/27 04:25:56;;;;;;;18.70;10.10;;;;;;;;;;751084;184;919785;-66
2023/09/27 04:28:21;;;;;;;12.70;9.67;;;;;;;;;;747918;186;919343;-65
2023/09/27 04:30:47;;;;;;;16.33;10.80;;;;;;;;;;755117;187;816376;-67
2023/09/27 04:33:15;;;;;;;13.50;10.70;;;;;;;;;;745450;186;943447;-66
2023/09/27 04:35:39;;;;;;;15.20;10.63;;;;;;;;;;744047;188;917446;-64
2023/09/27 04:38:05;;;;;;;14.17;10.10;;;;;;;;;;753039;186;919999;-61
2023/09/27 04:40:31;;;;;;;25.13;10.07;;;;;;;;;;751851;187;816936;-58
2023/09/27 04:42:56;;;;;;;19.33;10.60;;;;;;;;;;746490;187;816125;-59
2023/09/27 04:45:23;;;;;;;15.50;10.32;;;;;;;;;;749904;188;919238;-65
2023/09/27 04:47:49;;;;;;;15.10;9.80;;;;;;;;;;742044;187;623927;-66
2023/09/27 04:50:15;;;;;;;16.90;11.57;;;;;;;;;;750399;186;816829;-61
2023/09/27 04:52:41;;;;;;;14.17;10.67;;;;;;;;;;748735;185;817975;-58
2023/09/27 04:55:08;;;;;;;18.13;11.27;;;;;;;;;;754170;186;689803;-57
2023/09/27 04:57:33;;;;;;;16.00;11.70;;;;;;;;;;752365;186;628976;-66
2023/09/27 04:59:58;;;;;;;14.37;10.93;;;;;;;;;;752174;185;917860;-56
2023/09/27 05:02:25;;;;;;;14.90;10.73;;;;;;;;;;753745;184;919548;-58
2023/09/27 05:04:51;;;;;;;19.47;11.10;;;;;;;;;;747537;185;919011;-58
2023/09/27 05:07:16;;;;;;;14.77;10.13;;;;;;;;;;746056;186;923646;-66
2023/09/27 05:09:42;;;;;;;15.47;10.90;;;;;;;;;;751565;185;920965;-66
2023/09/27 05:12:08;;;;;;;24.63;11.03;;;;;;;;;;747174;187;924206;-61
2023/09/27 05:14:34;;;;;;;15.23;11.53;;;;;;;;;;748328;185;918588;-66
2023/09/27 05:16:59;;;;;;;13.17;9.93;;;;;;;;;;748883;187;915318;-59
2023/09/27 05:19:25;;;;;;;15.37;11.10;;;;;;;;;;750672;185;919232;-58
2023/09/27 05:21:51;;;;;;;15.00;9.93;;;;;;;;;;746767;187;914225;-66
2023/09/27 05:24:17;;;;;;;13.80;11.23;;;;;;;;;;747329;186;823871;-59
2023/09/27 05:26:43;;;;;;;18.10;11.33;;;;;;;;;;751081;186;918220;-56
2023/09/27 05:29:13;;;;;;;13.47;10.30;;;;;;;;;;745608;187;919499;-66
2023/09/27 05:31:34;;;;;;;17.00;10.93;;;;;;;;;;744201;187;919280;-66
2023/09/27 05:34:00;;;;;;;16.00;10.20;;;;;;;;;;754150;187;918666;-66
2023/09/27 05:36:26;;;;;;;19.27;12.00;;;;;;;;;;748406;187;919142;-67
2023/09/27 05:38:53;;;;;;;16.67;10.70;;;;;;;;;;748426;187;921706;-68
2023/09/27 05:41:18;;;;;;;18.33;12.60;;;;;;;;;;749296;187;880488;-65
2023/09/27 05:43:46;;;;;;;18.87;10.80;;;;;;;;;;740300;190;817431;-66
2023/09/27 05:46:12;;;;;;;20.17;12.50;;;;;;;;;;747085;184;816106;-58
2023/09/27 05:48:38;;;;;;;15.10;11.37;;;;;;;;;;747610;187;906177;-59
2023/09/27 05:51:03;;;;;;;14.67;11.37;;;;;;;;;;751747;186;905469;-66
2023/09/27 05:53:29;;;;;;;14.43;10.10;;;;;;;;;;745553;185;907914;-57
2023/09/27 05:55:55;;;;;;;23.47;10.90;;;;;;;;;;744858;186;911066;-57
2023/09/27 05:58:21;;;;;;;15.15;11.35;;;;;;;;;;752321;187;907460;-65
2023/09/27 06:00:48;;;;;;;15.40;11.20;;;;;;;;;;748242;185;878540;-66
2023/09/27 06:03:13;;;;;;;14.67;10.60;;;;;;;;;;747735;187;916005;-66
2023/09/27 06:05:38;;;;;;;16.77;10.57;;;;;;;;;;750551;186;919982;-58
2023/09/27 06:08:05;;;;;;;18.70;10.87;;;;;;;;;;746103;186;946237;-66
2023/09/27 06:10:30;;;;;;;18.60;12.00;;;;;;;;;;749077;187;918112;-56
2023/09/27 06:12:57;;;;;;;17.60;11.60;;;;;;;;;;746399;186;817833;-58
2023/09/27 06:15:22;;;;;;;14.63;10.57;;;;;;;;;;751646;187;905150;-58
2023/09/27 06:17:48;;;;;;;17.90;10.63;;;;;;;;;;745856;186;910084;-56
2023/09/27 06:20:20;;;;;;;12.33;9.77;;;;;;;;;;746035;186;915091;-66
2023/09/27 06:22:42;;;;;;;15.20;11.10;;;;;;;;;;754176;186;912409;-65
2023/09/27 06:25:08;;;;;;;12.03;9.77;;;;;;;;;;745790;184;942715;-58
2023/09/27 06:27:34;;;;;;;13.10;9.53;;;;;;;;;;745839;186;923542;-58
2023/09/27 06:30:00;;;;;;;13.90;9.67;;;;;;;;;;750491;184;921727;-58
2023/09/27 06:32:26;;;;;;;20.40;13.33;;;;;;;;;;746728;184;917939;-65
2023/09/27 06:34:52;;;;;;;12.67;8.93;;;;;;;;;;748407;186;894797;-66
2023/09/27 06:37:17;;;;;;;15.00;9.60;;;;;;;;;;748262;186;913508;-65
2023/09/27 06:39:43;;;;;;;20.07;10.13;;;;;;;;;;749886;185;818072;-66
2023/09/27 06:42:09;;;;;;;18.10;9.10;;;;;;;;;;748754;184;844481;-67
2023/09/27 06:44:35;;;;;;;18.70;9.70;;;;;;;;;;752420;184;621418;-66
2023/09/27 06:47:00;;;;;;;13.40;8.90;;;;;;;;;;753365;184;641820;-58
2023/09/27 06:49:26;;;;;;;11.87;9.43;;;;;;;;;;752406;184;624028;-60
2023/09/27 06:51:53;;;;;;;14.00;8.87;;;;;;;;;;751034;185;918596;-66
2023/09/27 06:54:18;;;;;;;17.83;11.07;;;;;;;;;;750897;185;917523;-58
2023/09/27 06:56:44;;;;;;;13.77;8.70;;;;;;;;;;747893;187;917192;-66
2023/09/27 06:59:10;;;;;;;15.00;8.60;;;;;;;;;;744537;187;929302;-67
2023/09/27 07:01:36;;;;;;;14.50;8.83;;;;;;;;;;744432;187;918721;-66
2023/09/27 07:04:03;;;;;;;16.13;8.83;;;;;;;;;;743343;188;919586;-58
2023/09/27 07:06:28;;;;;;;10.60;7.97;;;;;;;;;;746542;187;919216;-58
2023/09/27 07:08:57;;;;;;;12.13;8.60;;;;;;;;;;746152;186;818068;-59
2023/09/27 07:11:20;;;;;;;13.33;8.33;;;;;;;;;;751513;186;837471;-66
2023/09/27 07:13:46;;;;;;;11.40;7.63;;;;;;;;;;747786;186;749868;-66
2023/09/27 07:16:26;;;;;;;14.20;9.40;;;;;;;;;;751253;185;633986;-67
2023/09/27 07:18:52;;;;;;;10.77;7.83;;;;;;;;;;753700;186;833370;-58
2023/09/27 07:21:19;;;;;;;13.70;8.53;;;;;;;;;;751807;185;919136;-58
2023/09/27 07:23:43;;;;;;;11.50;8.00;;;;;;;;;;753284;185;632028;-67
2023/09/27 07:26:09;;;;;;;13.77;9.93;;;;;;;;;;751018;185;633399;-67
2023/09/27 07:28:35;;;;;;;11.33;7.97;;;;;;;;;;754648;187;634578;-67
2023/09/27 07:31:02;;;;;;;16.20;9.20;;;;;;;;;;749711;185;630938;-68
2023/09/27 07:33:27;;;;;;;13.83;8.00;;;;;;;;;;750985;187;624319;-59
2023/09/27 07:35:53;;;;;;;12.43;8.30;;;;;;;;;;750765;186;626818;-65
2023/09/27 07:38:18;;;;;;;15.57;8.57;;;;;;;;;;754667;187;631403;-58
2023/09/27 07:40:45;;;;;;;12.30;8.33;;;;;;;;;;752470;187;638545;-67
2023/09/27 07:43:11;;;;;;;11.17;6.80;;;;;;;;;;752049;185;631722;-66
2023/09/27 07:45:41;;;;;;;18.03;7.60;;;;;;;;;;754598;186;625244;-57
2023/09/27 07:48:03;;;;;;;13.90;7.50;;;;;;;;;;749463;184;919512;-59
2023/09/27 07:50:31;;;;;;;15.23;6.80;;;;;;;;;;744953;186;917450;-65
2023/09/27 07:52:55;;;;;;;16.20;8.20;;;;;;;;;;748304;185;918701;-58
2023/09/27 07:55:21;;;;;;;11.03;8.27;;;;;;;;;;747378;186;918982;-58
2023/09/27 07:57:46;;;;;;;14.83;7.17;;;;;;;;;;746917;187;920617;-58
2023/09/27 08:00:16;;;;;;;10.70;7.47;;;;;;;;;;742822;185;918185;-65
2023/09/27 08:02:43;;;;;;;10.90;6.90;;;;;;;;;;745704;185;920289;-67
2023/09/27 08:05:09;;;;;;;11.57;7.37;;;;;;;;;;750359;184;925338;-59
2023/09/27 08:07:35;;;;;;;10.67;7.03;;;;;;;;;;744144;186;819499;-66
2023/09/27 08:10:02;;;;;;;18.40;7.07;;;;;;;;;;759365;184;918993;-66
2023/09/27 08:12:29;;;;;;;13.20;7.17;;;;;;;;;;748991;186;840965;-66
2023/09/27 08:14:53;;;;;;;15.73;7.40;;;;;;;;;;747421;186;939115;-65
2023/09/27 08:17:19;;;;;;;10.37;8.17;;;;;;;;;;743877;187;919462;-58
2023/09/27 08:19:45;;;;;;;11.03;6.50;;;;;;;;;;741833;186;919140;-58
2023/09/27 08:22:10;;;;;;;9.70;7.03;;;;;;;;;;745423;186;919008;-58
2023/09/27 08:24:36;;;;;;;14.23;6.37;;;;;;;;;;746213;186;918969;-59
2023/09/27 08:27:02;;;;;;;11.50;7.17;;;;;;;;;;755624;184;916084;-65
2023/09/27 08:29:28;;;;;;;9.30;6.57;;;;;;;;;;745212;187;924521;-58
2023/09/27 08:31:54;;;;;;;9.20;7.37;;;;;;;;;;747970;186;918839;-58
2023/09/27 08:34:20;;;;;;;10.10;6.93;;;;;;;;;;746777;188;928821;-59
2023/09/27 08:36:46;;;;;;;8.70;7.20;;;;;;;;;;744811;186;918949;-58
2023/09/27 08:39:11;;;;;;;10.63;7.00;;;;;;;;;;743957;186;913576;-65
2023/09/27 08:41:37;;;;;;;9.07;6.87;;;;;;;;;;751036;187;816046;-65
2023/09/27 08:44:03;;;;;;;10.40;7.00;;;;;;;;;;750052;184;868034;-59
2023/09/27 08:46:29;;;;;;;12.33;7.20;;;;;;;;;;747794;185;919715;-67
2023/09/27 08:48:57;;;;;;;13.63;7.77;;;;;;;;;;748105;186;919903;-64
2023/09/27 08:51:21;;;;;;;11.23;7.13;;;;;;;;;;749488;184;919637;-58
2023/09/27 08:53:47;;;;;;;11.40;7.50;;;;;;;;;;750617;183;918584;-64
2023/09/27 08:56:16;;;;;;;10.80;7.10;;;;;;;;;;746396;186;861985;-64
2023/09/27 08:58:38;;;;;;;15.07;7.00;;;;;;;;;;754866;187;817900;-66
2023/09/27 09:01:04;;;;;;;10.63;7.20;;;;;;;;;;747380;186;918689;-57
2023/09/27 09:03:30;;;;;;;15.23;7.63;;;;;;;;;;746557;187;850960;-58
2023/09/27 09:05:56;;;;;;;10.63;5.93;;;;;;;;;;750745;185;1122188;-65
2023/09/27 09:08:22;;;;;;;12.80;7.37;;;;;;;;;;752779;183;919510;-59
2023/09/27 09:10:48;;;;;;;9.33;6.60;;;;;;;;;;748146;187;920118;-58
2023/09/27 09:13:15;;;;;;;8.73;6.50;;;;;;;;;;750849;187;821947;-58
2023/09/27 09:15:40;;;;;;;10.50;7.07;;;;;;;;;;746180;186;921678;-65
2023/09/27 09:18:11;;;;;;;10.70;7.13;;;;;;;;;;747635;187;921769;-57
2023/09/27 09:20:54;;;;;;;17.77;6.90;;;;;;;;;;748266;187;920032;-57
2023/09/27 09:23:23;;;;;;;8.83;6.73;;;;;;;;;;744813;187;919757;-64
2023/09/27 09:25:50;;;;;;;11.97;6.27;;;;;;;;;;752981;185;922214;-57
2023/09/27 09:28:15;;;;;;;9.80;6.77;;;;;;;;;;748695;187;919912;-58
2023/09/27 09:30:41;;;;;;;9.93;7.10;;;;;;;;;;748987;185;824395;-58
2023/09/27 09:33:08;;;;;;;13.75;7.22;;;;;;;;;;747393;185;911087;-64
2023/09/27 09:35:34;;;;;;;9.97;6.30;;;;;;;;;;744847;188;920299;-65
2023/09/27 09:38:01;;;;;;;10.07;7.13;;;;;;;;;;748044;185;919495;-65
2023/09/27 09:40:26;;;;;;;12.80;6.57;;;;;;;;;;748020;185;920153;-64
2023/09/27 09:42:52;;;;;;;13.93;6.30;;;;;;;;;;757083;185;918876;-65
2023/09/27 09:45:19;;;;;;;9.80;6.40;;;;;;;;;;747506;187;920331;-59
2023/09/27 09:47:44;;;;;;;8.90;6.60;;;;;;;;;;749012;187;916717;-58
2023/09/27 09:50:16;;;;;;;10.20;6.60;;;;;;;;;;752360;187;916722;-66
2023/09/27 09:52:35;;;;;;;9.87;6.50;;;;;;;;;;748626;187;812913;-66
2023/09/27 09:55:02;;;;;;;15.00;6.57;;;;;;;;;;750618;184;913869;-58
2023/09/27 09:57:27;;;;;;;8.90;5.90;;;;;;;;;;753174;184;819631;-64
2023/09/27 09:59:55;;;;;;;13.83;6.23;;;;;;;;;;759305;184;727816;-65
2023/09/27 10:02:21;;;;;;;10.10;6.27;;;;;;;;;;749258;185;921740;-64
2023/09/27 10:04:52;;;;;;;7.30;6.00;;;;;;;;;;758425;181;877405;-83
2023/09/27 10:07:14;;;;;;;10.00;6.20;;;;;;;;;;773803;181;623560;-82
2023/09/27 10:09:39;;;;;;;7.83;5.83;;;;;;;;;;772445;178;831468;-82
2023/09/27 10:12:05;;;;;;;6.70;4.83;;;;;;;;;;778838;181;665437;-83
2023/09/27 10:14:31;;;;;;;11.53;5.90;;;;;;;;;;782374;178;665251;-83
2023/09/27 10:16:57;;;;;;;12.97;5.57;;;;;;;;;;773786;178;642612;-83
2023/09/27 10:19:25;;;;;;;9.67;4.90;;;;;;;;;;781659;179;644103;-83
2023/09/27 10:21:56;;;;;;;8.33;6.20;;;;;;;;;;779669;179;625643;-83
2023/09/27 10:24:25;;;;;;;9.63;5.17;;;;;;;;;;782289;179;685732;-83
2023/09/27 10:26:51;;;;;;;6.20;5.27;;;;;;;;;;778835;178;626389;-83
2023/09/27 10:29:18;;;;;;;9.37;5.00;;;;;;;;;;778988;178;626443;-82
2023/09/27 10:31:48;;;;;;;8.13;5.60;;;;;;;;;;781446;178;635835;-82
2023/09/27 10:34:20;;;;;;;12.43;5.17;;;;;;;;;;770171;181;615202;-82
2023/09/27 10:36:46;;;;;;;9.53;5.70;;;;;;;;;;780219;178;647214;-84
2023/09/27 10:39:12;;;;;;;17.58;6.45;;;;;;;;;;781409;177;626476;-82
2023/09/27 10:41:40;;;;;;;5.85;4.55;;;;;;;;;;782588;178;635004;-82
2023/09/27 10:44:05;;;;;;;9.93;5.23;;;;;;;;;;770941;179;640813;-83
2023/09/27 10:46:36;;;;;;;11.47;4.73;;;;;;;;;;780656;180;664477;-82
2023/09/27 10:49:02;;;;;;;13.63;4.77;;;;;;;;;;780072;177;622100;-82
2023/09/27 10:51:28;;;;;;;12.77;5.53;;;;;;;;;;784588;179;644946;-82
2023/09/27 10:53:54;;;;;;;11.20;6.23;;;;;;;;;;756202;181;920545;-58
2023/09/27 10:56:20;;;;;;;8.57;5.07;;;;;;;;;;756947;183;919508;-59
2023/09/27 10:58:46;;;;;;;9.03;4.50;;;;;;;;;;764536;183;916212;-59
2023/09/27 11:01:12;;;;;;;7.53;4.00;;;;;;;;;;763255;183;920042;-58
2023/09/27 11:03:38;;;;;;;7.60;4.73;;;;;;;;;;756178;183;919379;-58
2023/09/27 11:06:10;;;;;;;10.00;5.57;;;;;;;;;;760156;182;921010;-58
2023/09/27 11:08:36;;;;;;;7.97;4.90;;;;;;;;;;766714;183;921871;-66
2023/09/27 11:11:02;;;;;;;7.50;4.80;;;;;;;;;;762809;183;921995;-63
2023/09/27 11:13:29;;;;;;;6.10;4.57;;;;;;;;;;762640;183;849032;-66
2023/09/27 11:15:53;;;;;;;9.63;4.77;;;;;;;;;;764827;183;835597;-59
2023/09/27 11:18:19;;;;;;;7.70;4.70;;;;;;;;;;754377;182;919411;-59
2023/09/27 11:20:45;;;;;;;8.87;4.77;;;;;;;;;;754624;184;920957;-58
2023/09/27 11:23:11;;;;;;;8.80;4.47;;;;;;;;;;764260;183;916374;-64
2023/09/27 11:25:37;;;;;;;13.07;6.65;;;;;;;;;;759189;183;907864;-58
2023/09/27 11:28:03;;;;;;;7.23;4.50;;;;;;;;;;752957;183;919389;-65
2023/09/27 11:30:31;;;;;;;13.80;6.97;;;;;;;;;;752763;183;919390;-65
2023/09/27 11:32:56;;;;;;;29.27;8.30;;;;;;;;;;762142;183;918961;-65
2023/09/27 11:35:23;;;;;;;7.43;4.43;;;;;;;;;;734160;188;914347;-66
2023/09/27 11:37:48;;;;;;;7.53;4.63;;;;;;;;;;737672;188;907018;-58
2023/09/27 11:40:14;;;;;;;12.33;4.87;;;;;;;;;;749814;187;807231;-65
2023/09/27 11:42:40;;;;;;;9.20;4.37;;;;;;;;;;744268;187;919286;-66
2023/09/27 11:45:08;;;;;;;15.13;5.27;;;;;;;;;;759746;183;918120;-59
2023/09/27 11:47:32;;;;;;;8.67;4.17;;;;;;;;;;763994;183;626004;-59
2023/09/27 11:49:58;;;;;;;10.07;4.73;;;;;;;;;;769424;183;618808;-58
2023/09/27 11:52:24;;;;;;;6.57;4.77;;;;;;;;;;764555;183;624059;-59
2023/09/27 11:54:53;;;;;;;8.33;4.63;;;;;;;;;;761162;183;635494;-66
2023/09/27 11:57:16;;;;;;;13.47;4.60;;;;;;;;;;767078;183;802398;-64
2023/09/27 11:59:42;;;;;;;11.23;4.93;;;;;;;;;;757896;183;928216;-59
2023/09/27 12:02:08;;;;;;;6.83;4.43;;;;;;;;;;758872;183;919302;-59
2023/09/27 12:04:33;;;;;;;6.97;4.67;;;;;;;;;;760404;183;916686;-59
2023/09/27 12:06:59;;;;;;;15.37;4.90;;;;;;;;;;758311;183;827567;-57
2023/09/27 12:09:25;;;;;;;9.37;4.07;;;;;;;;;;758684;183;919284;-58
2023/09/27 12:11:51;;;;;;;6.93;4.50;;;;;;;;;;756305;183;1021266;-59
2023/09/27 12:14:17;;;;;;;9.17;4.67;;;;;;;;;;748944;184;916773;-64
2023/09/27 12:16:43;;;;;;;5.00;3.73;;;;;;;;;;742993;187;939061;-58
2023/09/27 12:19:09;;;;;;;13.10;4.10;;;;;;;;;;751264;185;814029;-59
2023/09/27 12:21:34;;;;;;;10.07;4.20;;;;;;;;;;745974;187;914327;-57
2023/09/27 12:24:01;;;;;;;12.70;5.60;;;;;;;;;;736162;187;937283;-59
2023/09/27 12:26:26;;;;;;;7.90;4.37;;;;;;;;;;735168;188;811587;-58
2023/09/27 12:28:52;;;;;;;8.90;5.20;;;;;;;;;;763620;183;916650;-65
2023/09/27 12:31:18;;;;;;;11.43;4.70;;;;;;;;;;760826;183;918267;-58
2023/09/27 12:33:44;;;;;;;9.63;4.53;;;;;;;;;;754594;183;921649;-66
2023/09/27 12:36:09;;;;;;;9.10;5.30;;;;;;;;;;764379;183;919128;-65
2023/09/27 12:38:35;;;;;;;7.17;3.97;;;;;;;;;;755498;183;922409;-58
2023/09/27 12:41:03;;;;;;;23.60;9.10;;;;;;;;;;756975;183;909159;-58
2023/09/27 12:43:27;;;;;;;7.47;4.03;;;;;;;;;;760370;183;922273;-63
2023/09/27 12:45:53;;;;;;;10.40;5.30;;;;;;;;;;766575;183;921465;-59
2023/09/27 12:48:19;;;;;;;109.57;25.73;;;;;;;;;;752707;183;783161;-61
2023/09/27 12:50:45;;;;;;;10.43;5.03;;;;;;;;;;758374;182;814375;-62
2023/09/27 12:53:11;;;;;;;9.40;4.23;;;;;;;;;;762666;183;857481;-57
2023/09/27 12:55:40;;;;;;;26.17;8.13;;;;;;;;;;756509;183;919505;-62
2023/09/27 12:58:05;;;;;;;11.63;4.77;;;;;;;;;;758587;183;920416;-57
2023/09/27 13:00:31;;;;;;;9.00;3.58;;;;;;;;;;757504;183;873372;-58
2023/09/27 13:02:57;;;;;;;8.90;4.30;;;;;;;;;;758219;183;913011;-63
2023/09/27 13:05:23;;;;;;;10.33;4.40;;;;;;;;;;756336;183;1003716;-62
2023/09/27 13:07:49;;;;;;;16.23;4.85;;;;;;;;;;757567;183;917694;-57
2023/09/27 13:10:15;;;;;;;9.97;4.40;;;;;;;;;;761632;183;918401;-58
2023/09/27 13:12:41;;;;;;;7.43;4.33;;;;;;;;;;759998;183;859418;-58
2023/09/27 13:15:07;;;;;;;13.30;4.60;;;;;;;;;;756193;184;919424;-57
2023/09/27 13:17:33;;;;;;;6.37;4.27;;;;;;;;;;765793;183;821490;-58
2023/09/27 13:19:59;;;;;;;33.60;13.80;;;;;;;;;;757555;183;920482;-57
2023/09/27 13:22:25;;;;;;;16.83;7.10;;;;;;;;;;754049;184;918546;-57
2023/09/27 13:24:51;;;;;;;101.40;30.77;;;;;;;;;;762652;183;920682;-58
2023/09/27 13:27:17;;;;;;;39.70;16.90;;;;;;;;;;757396;183;936479;-56
2023/09/27 13:29:43;;;;;;;6.60;4.30;;;;;;;;;;759925;182;857603;-63
2023/09/27 13:32:09;;;;;;;6.03;3.97;;;;;;;;;;762156;183;879798;-61
2023/09/27 13:34:35;;;;;;;10.00;4.33;;;;;;;;;;766058;183;619041;-58
2023/09/27 13:37:01;;;;;;;9.50;5.13;;;;;;;;;;759210;183;818195;-59
2023/09/27 13:39:28;;;;;;;11.87;4.70;;;;;;;;;;760088;183;921243;-62
2023/09/27 13:41:52;;;;;;;6.53;4.43;;;;;;;;;;763358;183;808562;-62
2023/09/27 13:44:18;;;;;;;7.87;4.10;;;;;;;;;;758393;183;917852;-58
2023/09/27 13:46:44;;;;;;;5.95;3.90;;;;;;;;;;759866;183;919503;-56
2023/09/27 13:49:10;;;;;;;7.03;4.83;;;;;;;;;;764589;183;919091;-57
2023/09/27 13:51:36;;;;;;;6.43;3.70;;;;;;;;;;759257;183;919388;-58
2023/09/27 13:54:02;;;;;;;9.90;3.67;;;;;;;;;;764898;183;625367;-63
2023/09/27 13:56:28;;;;;;;4.50;3.20;;;;;;;;;;755518;183;921258;-62
2023/09/27 13:58:53;;;;;;;6.43;3.90;;;;;;;;;;752706;184;918802;-62
2023/09/27 14:01:19;;;;;;;10.30;3.80;;;;;;;;;;757770;183;919010;-56
2023/09/27 14:03:45;;;;;;;12.03;5.80;;;;;;;;;;756959;183;908139;-62
2023/09/27 14:06:11;;;;;;;7.80;3.80;;;;;;;;;;762025;183;819100;-62
2023/09/27 14:08:38;;;;;;;7.77;3.90;;;;;;;;;;756601;183;919188;-61